Time;durP1;ratioP1;P1;durP2;ratioP2;P2;SDS_P1;SDS_P2;PMS_P1;PMS_P2;Temp;Humidity;BMP_temperature;BMP_pressure;BME280_temperature;BME280_humidity;BME280_pressure;Samples;Min_cycle;Max_cycle;Signal;HPM_P1;HPM_P2
2021/12/17 00:01:13;;;;;;;32.25;5.80;;;;;;;3.87;82.94;102503.75;1697747;83;21149;-84
2021/12/17 00:03:45;;;;;;;30.08;6.28;;;;;;;3.86;82.98;102508.43;1735011;82;21021;-84
2021/12/17 00:08:55;;;;;;;22.73;5.08;;;;;;;3.83;83.08;102504.27;1734883;82;21813;-84
2021/12/17 00:11:22;;;;;;;30.60;6.08;;;;;;;3.82;83.13;102509.88;1697681;83;21105;-83
2021/12/17 00:13:50;;;;;;;27.10;6.12;;;;;;;3.81;83.21;102512.35;1735055;82;21594;-84
2021/12/17 00:16:21;;;;;;;31.12;6.03;;;;;;;3.81;83.23;102498.96;1697635;82;21101;-84
2021/12/17 00:48:45;;;;;;;29.65;6.15;;;;;;;3.78;83.42;102522.55;1697618;84;21958;-84
2021/12/17 00:51:54;;;;;;;23.65;5.42;;;;;;;3.76;83.34;102528.92;1732833;81;21170;-84
2021/12/17 00:54:01;;;;;;;22.32;4.80;;;;;;;3.75;83.29;102523.59;1670670;84;21055;-84
2021/12/17 00:56:27;;;;;;;23.22;4.70;;;;;;;3.75;83.35;102534.01;1701515;83;21099;-84
2021/12/17 00:58:57;;;;;;;22.05;4.87;;;;;;;3.75;83.36;102544.02;1701048;83;21201;-84
2021/12/17 01:01:25;;;;;;;22.22;4.80;;;;;;;3.75;83.33;102549.63;1702285;82;21797;-84
2021/12/17 01:03:52;;;;;;;26.60;4.80;;;;;;;3.75;83.30;102550.53;1702853;84;21093;-84
2021/12/17 01:06:18;;;;;;;27.98;5.17;;;;;;;3.73;83.20;102549.91;1702880;84;21026;-84
2021/12/17 01:08:45;;;;;;;24.52;5.08;;;;;;;3.70;83.22;102560.59;1698214;82;21114;-84
2021/12/17 01:11:12;;;;;;;23.12;4.12;;;;;;;3.73;83.33;102558.62;1713298;82;21115;-84
2021/12/17 01:13:42;;;;;;;19.70;4.45;;;;;;;3.72;83.20;102560.72;1704487;82;21779;-85
2021/12/17 01:16:08;;;;;;;26.75;4.75;;;;;;;3.71;83.23;102556.28;1702631;83;21065;-84
2021/12/17 01:41:45;;;;;;;17.70;4.37;;;;;;;3.72;83.10;102544.16;1702861;84;22447;-84
2021/12/17 01:43:04;;;;;;;25.68;4.85;;;;;;;3.70;83.10;102547.97;1670775;84;21096;-85
2021/12/17 01:45:36;;;;;;;17.40;4.05;;;;;;;3.69;83.13;102542.23;1702980;84;21092;-84
2021/12/17 01:48:03;;;;;;;18.10;4.80;;;;;;;3.70;83.21;102540.16;1674110;84;21177;-85
2021/12/17 02:01:32;;;;;;;24.72;4.42;;;;;;;3.60;83.04;102550.59;1702871;84;20999;-83
2021/12/17 02:03:58;;;;;;;18.05;4.50;;;;;;;3.57;83.05;102542.15;1703183;84;21061;-83
2021/12/17 02:06:28;;;;;;;17.50;4.58;;;;;;;3.55;83.13;102542.78;1703167;84;21778;-84
2021/12/17 02:08:56;;;;;;;28.52;5.33;;;;;;;3.54;83.14;102544.48;1702636;83;21084;-83
2021/12/17 02:31:02;;;;;;;18.60;4.30;;;;;;;3.47;83.16;102523.94;1702712;84;21128;-84
2021/12/17 02:32:38;;;;;;;27.70;4.85;;;;;;;3.46;83.24;102528.24;1683866;84;21859;-84
2021/12/17 02:37:34;;;;;;;23.70;4.60;;;;;;;3.43;83.15;102527.08;1702908;83;21164;-84
2021/12/17 02:45:32;;;;;;;18.67;4.05;;;;;;;3.38;83.17;102532.28;1702669;84;21810;-84
2021/12/17 02:48:10;;;;;;;21.50;4.00;;;;;;;3.36;83.13;102541.30;1703099;84;21097;-85
2021/12/17 02:50:48;;;;;;;23.00;4.72;;;;;;;3.33;83.18;102544.94;1703257;84;21634;-84
2021/12/17 02:53:16;;;;;;;23.18;4.70;;;;;;;3.31;83.23;102555.21;1701559;84;21622;-84
2021/12/17 02:55:48;;;;;;;25.50;5.80;;;;;;;3.31;83.28;102551.31;1703278;84;21089;-83
2021/12/17 02:58:15;;;;;;;23.62;4.87;;;;;;;3.21;83.28;102540.93;1703003;84;21744;-84
2021/12/17 03:00:42;;;;;;;19.55;4.22;;;;;;;3.26;83.33;102551.30;1702990;84;21607;-84
2021/12/17 03:03:09;;;;;;;22.37;4.55;;;;;;;3.27;83.39;102551.84;1703154;84;21070;-83
2021/12/17 03:05:39;;;;;;;20.90;4.60;;;;;;;3.26;83.44;102561.72;1674839;84;21584;-84
2021/12/17 03:08:07;;;;;;;22.80;4.42;;;;;;;3.25;83.46;102552.11;1702777;82;21114;-84
2021/12/17 03:10:33;;;;;;;19.95;5.33;;;;;;;3.24;83.39;102555.87;1702755;84;21457;-83
2021/12/17 03:13:03;;;;;;;23.45;5.03;;;;;;;3.23;83.46;102562.78;1702964;84;21057;-84
2021/12/17 03:15:42;;;;;;;20.40;5.30;;;;;;;3.22;83.53;102568.75;1702937;84;22108;-84
2021/12/17 03:23:31;;;;;;;20.17;4.10;;;;;;;3.16;83.63;102557.84;1702825;84;21812;-83
2021/12/17 03:26:05;;;;;;;24.32;5.12;;;;;;;3.14;83.67;102554.60;1701812;82;21116;-85
2021/12/17 03:28:32;;;;;;;21.52;4.67;;;;;;;3.10;83.64;102552.13;1647606;82;21943;-85
2021/12/17 03:31:00;;;;;;;27.62;5.15;;;;;;;3.08;83.68;102560.20;1733362;82;21102;-83
2021/12/17 03:33:27;;;;;;;21.10;4.47;;;;;;;3.05;83.75;102551.73;1734760;82;21117;-83
2021/12/17 03:35:54;;;;;;;22.52;4.53;;;;;;;3.02;83.72;102546.28;1734765;82;21769;-84
2021/12/17 03:38:22;;;;;;;17.87;4.85;;;;;;;3.02;83.76;102546.66;1734898;82;21595;-83
2021/12/17 03:40:58;;;;;;;23.65;4.83;;;;;;;2.97;83.76;102535.88;1733934;82;21101;-83
2021/12/17 03:43:30;;;;;;;20.57;4.97;;;;;;;2.95;83.85;102528.70;1730567;82;21065;-86
2021/12/17 03:45:47;;;;;;;26.97;4.47;;;;;;;2.92;83.84;102539.77;1757971;81;21094;-83
2021/12/17 03:48:14;;;;;;;24.02;4.37;;;;;;;2.88;83.80;102537.30;1760526;81;21819;-83
2021/12/17 03:50:41;;;;;;;25.52;4.78;;;;;;;2.88;83.92;102546.80;1760384;81;21076;-82
2021/12/17 03:53:08;;;;;;;21.40;4.30;;;;;;;2.86;83.93;102542.77;1760413;81;21077;-82
2021/12/17 03:55:35;;;;;;;21.85;4.87;;;;;;;2.85;84.03;102538.36;1760573;81;21073;-84
2021/12/17 03:58:02;;;;;;;19.82;4.72;;;;;;;2.85;84.00;102550.42;1760485;81;21658;-86
2021/12/17 04:00:30;;;;;;;18.35;4.15;;;;;;;2.83;84.10;102539.89;1760453;81;22603;-85
2021/12/17 04:02:56;;;;;;;21.75;4.40;;;;;;;2.83;84.20;102545.48;1760613;81;21117;-84
2021/12/17 04:05:23;;;;;;;19.25;4.17;;;;;;;2.83;84.21;102532.48;1760341;81;21077;-83
2021/12/17 04:07:50;;;;;;;20.55;4.17;;;;;;;2.82;84.17;102547.19;1758984;81;21043;-83
2021/12/17 04:10:21;;;;;;;17.27;4.12;;;;;;;2.82;84.25;102555.39;1749583;81;21069;-84
2021/12/17 04:13:12;;;;;;;17.77;4.30;;;;;;;2.84;84.35;102538.22;1749463;81;21788;-83
2021/12/17 04:15:37;;;;;;;23.52;3.98;;;;;;;2.87;84.41;102544.97;1747396;81;21401;-84
2021/12/17 04:17:59;;;;;;;23.38;4.42;;;;;;;2.87;84.35;102546.27;1748715;81;21125;-84
2021/12/17 04:20:26;;;;;;;26.00;4.65;;;;;;;2.87;84.36;102543.66;1749871;81;21109;-85
2021/12/17 04:22:53;;;;;;;14.53;3.60;;;;;;;2.88;84.37;102549.40;1749587;81;21046;-85
2021/12/17 04:25:22;;;;;;;21.77;4.28;;;;;;;2.88;84.34;102554.20;1749271;81;21786;-84
2021/12/17 04:27:48;;;;;;;21.85;5.03;;;;;;;2.89;84.37;102557.70;1748908;81;21584;-85
2021/12/17 04:30:15;;;;;;;18.75;4.42;;;;;;;2.89;84.35;102565.14;1749260;81;21010;-84
2021/12/17 04:32:41;;;;;;;16.12;4.08;;;;;;;2.90;84.29;102569.95;1749581;81;21102;-85
2021/12/17 04:35:08;;;;;;;19.80;4.65;;;;;;;2.90;84.36;102570.84;1749885;81;21062;-84
2021/12/17 04:37:35;;;;;;;20.52;4.35;;;;;;;2.90;84.28;102568.64;1750044;81;23058;-85
2021/12/17 04:40:02;;;;;;;16.42;4.85;;;;;;;2.89;84.25;102566.45;1749686;81;21077;-85
2021/12/17 04:42:55;;;;;;;17.82;4.78;;;;;;;2.89;84.25;102565.14;1749778;81;21074;-85
2021/12/17 04:45:10;;;;;;;16.77;3.90;;;;;;;2.88;84.18;102565.91;1747381;81;21101;-85
2021/12/17 04:58:23;;;;;;;19.90;4.67;;;;;;;2.87;84.12;102562.80;1749454;81;21035;-84
2021/12/17 05:00:50;;;;;;;19.25;4.62;;;;;;;2.86;84.16;102570.07;1749618;81;21082;-80
2021/12/17 05:03:16;;;;;;;19.17;4.75;;;;;;;2.86;84.09;102571.38;1749178;81;22743;-80
2021/12/17 05:05:43;;;;;;;16.30;5.00;;;;;;;2.83;84.00;102571.09;1737486;81;21780;-80
2021/12/17 05:08:14;;;;;;;14.60;4.42;;;;;;;2.82;84.07;102562.80;1721704;82;21168;-80
2021/12/17 05:18:46;;;;;;;17.20;4.53;;;;;;;2.77;84.08;102562.78;1726557;82;21061;-81
2021/12/17 05:21:07;;;;;;;19.95;4.15;;;;;;;2.78;84.09;102551.62;1725026;83;21574;-80
2021/12/17 05:23:38;;;;;;;17.73;4.28;;;;;;;2.78;84.08;102547.72;1726920;82;21081;-79
2021/12/17 05:26:07;;;;;;;16.85;3.98;;;;;;;2.80;84.11;102548.75;1726546;82;21610;-77
2021/12/17 05:28:34;;;;;;;15.72;4.05;;;;;;;2.83;84.12;102544.19;1726978;82;21760;-77
2021/12/17 05:31:00;;;;;;;16.57;4.00;;;;;;;2.84;84.08;102556.43;1732271;81;21214;-77
2021/12/17 05:33:27;;;;;;;18.82;4.35;;;;;;;2.85;84.04;102547.47;1730705;81;21057;-77
2021/12/17 05:35:54;;;;;;;14.90;3.62;;;;;;;2.87;84.07;102555.00;1726545;82;21752;-77
2021/12/17 05:38:22;;;;;;;21.25;4.45;;;;;;;2.90;83.97;102556.94;1726694;81;21649;-85
2021/12/17 05:40:48;;;;;;;20.60;4.20;;;;;;;2.90;83.87;102553.04;1727589;82;21444;-80
2021/12/17 05:43:15;;;;;;;17.92;4.40;;;;;;;2.87;83.82;102548.50;1727409;83;21105;-81
2021/12/17 05:48:26;;;;;;;20.37;4.92;;;;;;;2.86;83.74;102550.56;1727673;83;21212;-81
2021/12/17 05:50:58;;;;;;;19.07;5.75;;;;;;;2.82;83.67;102548.48;1727568;83;21061;-82
2021/12/17 05:53:25;;;;;;;16.05;4.30;;;;;;;2.82;83.74;102541.09;1727095;82;21761;-82
2021/12/17 05:55:54;;;;;;;20.10;5.33;;;;;;;2.80;83.70;102547.45;1726309;82;21124;-83
2021/12/17 05:58:24;;;;;;;14.73;5.05;;;;;;;2.80;83.69;102550.45;1698224;83;21072;-86
2021/12/17 06:00:51;;;;;;;20.23;5.53;;;;;;;2.77;83.67;102554.98;1726941;82;21100;-80
2021/12/17 06:03:18;;;;;;;19.20;5.03;;;;;;;2.75;83.65;102551.74;1726558;82;21072;-80
2021/12/17 06:05:46;;;;;;;14.93;4.40;;;;;;;2.73;83.66;102548.61;1726857;82;22278;-84
2021/12/17 06:08:16;;;;;;;19.02;4.85;;;;;;;2.74;83.71;102554.73;1726829;81;21069;-84
2021/12/17 06:10:44;;;;;;;16.50;4.62;;;;;;;2.75;83.70;102559.14;1738265;82;21109;-84
2021/12/17 06:13:12;;;;;;;19.52;4.62;;;;;;;2.74;83.68;102565.14;1706710;82;21598;-85
2021/12/17 06:15:44;;;;;;;18.00;5.05;;;;;;;2.73;83.70;102563.30;1688313;83;21115;-83
2021/12/17 06:18:17;;;;;;;17.48;4.72;;;;;;;2.75;83.77;102572.14;1711422;83;21762;-84
2021/12/17 06:20:39;;;;;;;16.52;4.83;;;;;;;2.77;83.78;102574.88;1707753;83;21052;-81
2021/12/17 06:23:05;;;;;;;17.20;4.47;;;;;;;2.78;83.76;102572.78;1711388;83;21340;-80
2021/12/17 06:25:32;;;;;;;14.13;4.10;;;;;;;2.79;83.73;102575.92;1711057;83;21124;-81
2021/12/17 06:27:59;;;;;;;16.73;4.83;;;;;;;2.80;83.77;102573.45;1710634;83;21311;-81
2021/12/17 06:30:26;;;;;;;14.18;3.47;;;;;;;2.83;83.77;102578.00;1710606;83;21841;-81
2021/12/17 06:32:52;;;;;;;13.10;4.20;;;;;;;2.86;83.78;102582.17;1710686;83;21083;-80
2021/12/17 06:35:21;;;;;;;15.08;3.47;;;;;;;2.88;83.72;102591.02;1687535;83;21135;-81
2021/12/17 06:37:48;;;;;;;16.32;4.47;;;;;;;2.88;83.65;102586.72;1711147;83;21582;-81
2021/12/17 06:40:14;;;;;;;16.50;4.65;;;;;;;2.89;83.60;102600.25;1711277;83;21126;-81
2021/12/17 06:42:41;;;;;;;11.65;4.35;;;;;;;2.90;83.60;102593.36;1710893;83;21759;-81
2021/12/17 06:45:18;;;;;;;15.50;4.08;;;;;;;2.89;83.51;102597.66;1710751;83;21095;-81
2021/12/17 06:47:39;;;;;;;13.55;3.87;;;;;;;2.88;83.49;102597.52;1709294;83;21076;-81
2021/12/17 07:20:51;;;;;;;16.65;4.45;;;;;;;2.99;83.29;102617.55;1721107;83;21110;-80
2021/12/17 07:33:34;;;;;;;15.90;4.42;;;;;;;3.10;83.10;102627.59;1697424;84;21926;-82
2021/12/17 07:36:06;;;;;;;13.95;4.20;;;;;;;3.14;83.11;102628.36;1671271;84;21811;-80
2021/12/17 07:38:39;;;;;;;15.75;4.42;;;;;;;3.16;83.06;102630.70;1669378;85;21100;-80
2021/12/17 07:41:05;;;;;;;14.10;4.42;;;;;;;3.19;82.99;102636.18;1671519;84;21577;-83
2021/12/17 07:43:39;;;;;;;15.72;4.60;;;;;;;3.22;82.97;102628.61;1672156;84;21309;-80
2021/12/17 07:46:09;;;;;;;13.40;4.95;;;;;;;3.24;82.90;102637.86;1672271;85;21180;-80
2021/12/17 07:48:37;;;;;;;13.10;5.05;;;;;;;3.26;82.81;102646.30;1671986;85;21760;-80
2021/12/17 07:51:07;;;;;;;18.32;5.35;;;;;;;3.28;82.74;102643.84;1671942;84;21119;-80
2021/12/17 07:53:34;;;;;;;17.37;4.67;;;;;;;3.28;82.69;102644.77;1672158;85;21740;-80
2021/12/17 07:56:01;;;;;;;15.58;4.83;;;;;;;3.30;82.68;102650.08;1672089;85;21088;-80
2021/12/17 07:58:30;;;;;;;13.43;5.17;;;;;;;3.34;82.69;102646.05;1672396;85;21119;-80
2021/12/17 08:00:57;;;;;;;24.23;5.92;;;;;;;3.38;82.66;102653.33;1674210;85;21229;-80
2021/12/17 08:03:23;;;;;;;19.95;5.58;;;;;;;3.42;82.67;102647.63;1685818;85;21052;-80
2021/12/17 08:05:50;;;;;;;15.68;5.28;;;;;;;3.47;82.62;102647.59;1685823;85;21077;-80
2021/12/17 08:08:17;;;;;;;17.85;4.42;;;;;;;3.52;82.53;102644.09;1685701;85;21098;-80
2021/12/17 08:10:47;;;;;;;17.92;4.83;;;;;;;3.57;82.57;102656.72;1690272;83;21081;-80
2021/12/17 08:13:20;;;;;;;17.02;5.00;;;;;;;3.63;82.49;102640.30;1691775;84;21898;-80
2021/12/17 08:15:50;;;;;;;14.50;4.50;;;;;;;3.60;82.38;102627.41;1691152;84;21078;-80
2021/12/17 08:26:40;;;;;;;14.13;3.85;;;;;;;3.91;82.15;102658.22;1726969;82;21792;-81
2021/12/17 08:31:25;;;;;;;13.28;4.37;;;;;;;4.02;81.97;102648.28;1726960;82;21343;-81
2021/12/17 08:33:51;;;;;;;14.53;4.20;;;;;;;4.07;81.91;102653.49;1697063;84;21226;-81
2021/12/17 08:36:18;;;;;;;14.83;3.70;;;;;;;4.12;81.81;102650.34;1734577;82;21077;-81
2021/12/17 08:38:46;;;;;;;12.73;4.45;;;;;;;4.17;81.73;102646.43;1696982;84;21858;-80
2021/12/17 08:41:14;;;;;;;12.58;4.45;;;;;;;4.20;81.68;102659.28;1734265;82;21084;-80
2021/12/17 08:43:40;;;;;;;14.80;4.25;;;;;;;4.25;81.58;102659.28;1696970;83;22543;-80
2021/12/17 08:46:07;;;;;;;12.05;4.03;;;;;;;4.31;81.54;102653.65;1734296;81;21056;-81
2021/12/17 08:48:34;;;;;;;11.88;4.15;;;;;;;4.32;81.43;102638.91;1734448;82;21124;-83
2021/12/17 08:51:01;;;;;;;15.88;4.90;;;;;;;4.39;81.37;102649.98;1696914;83;21718;-80
2021/12/17 08:53:27;;;;;;;11.57;4.00;;;;;;;4.44;81.27;102649.94;1734367;82;21052;-81
2021/12/17 08:55:54;;;;;;;11.90;4.45;;;;;;;4.48;81.16;102652.39;1696794;82;21097;-80
2021/12/17 08:58:20;;;;;;;13.45;4.40;;;;;;;4.52;81.10;102657.06;1734280;82;21674;-81
2021/12/17 09:00:47;;;;;;;10.82;4.78;;;;;;;4.55;81.03;102657.32;1696913;83;21100;-83
2021/12/17 09:03:14;;;;;;;12.37;4.15;;;;;;;4.60;80.99;102656.41;1734377;82;21782;-80
2021/12/17 09:05:43;;;;;;;12.55;4.37;;;;;;;4.57;80.87;102648.33;1696826;82;21062;-83
2021/12/17 09:08:10;;;;;;;8.75;3.60;;;;;;;4.68;80.81;102663.13;1734230;82;21073;-80
2021/12/17 09:10:37;;;;;;;12.75;4.00;;;;;;;4.73;80.76;102669.63;1699590;81;21218;-81
2021/12/17 09:13:04;;;;;;;10.95;4.40;;;;;;;4.77;80.72;102665.57;1700785;84;21671;-81
2021/12/17 09:15:31;;;;;;;13.13;4.55;;;;;;;4.80;80.61;102664.08;1701383;82;21805;-80
2021/12/17 09:17:58;;;;;;;9.15;3.67;;;;;;;4.84;80.51;102659.65;1686511;84;21156;-81
2021/12/17 09:20:24;;;;;;;12.33;4.15;;;;;;;4.87;80.46;102654.65;1701778;84;22293;-81
2021/12/17 09:22:52;;;;;;;12.53;4.05;;;;;;;4.92;80.35;102668.08;1701127;82;21054;-81
2021/12/17 09:25:19;;;;;;;7.67;3.70;;;;;;;4.96;80.31;102667.92;1701809;82;21100;-81
2021/12/17 09:27:46;;;;;;;14.65;4.00;;;;;;;4.99;80.22;102667.77;1701086;83;21715;-81
2021/12/17 09:30:15;;;;;;;10.23;3.37;;;;;;;5.04;80.19;102678.56;1701610;82;21152;-81
2021/12/17 09:32:42;;;;;;;12.73;3.87;;;;;;;5.08;80.04;102678.41;1700982;83;21109;-81
2021/12/17 09:35:10;;;;;;;9.20;3.80;;;;;;;5.11;79.95;102683.47;1701909;82;22183;-81
2021/12/17 09:37:36;;;;;;;10.13;3.50;;;;;;;5.15;79.91;102685.94;1699598;82;21508;-80
2021/12/17 09:40:07;;;;;;;13.20;4.47;;;;;;;5.18;79.87;102699.20;1703592;82;21756;-81
2021/12/17 09:42:36;;;;;;;12.30;4.60;;;;;;;5.21;79.79;102700.76;1717410;83;21089;-81
2021/12/17 09:45:05;;;;;;;10.28;3.70;;;;;;;5.24;79.68;102695.79;1716824;83;21085;-81
2021/12/17 09:47:31;;;;;;;13.70;4.20;;;;;;;5.28;79.58;102700.86;1717555;83;21272;-81
2021/12/17 09:49:58;;;;;;;10.35;3.77;;;;;;;5.29;79.47;102697.03;1717628;83;21078;-81
2021/12/17 09:52:25;;;;;;;10.30;3.77;;;;;;;5.32;79.38;102693.36;1717767;83;22556;-80
2021/12/17 09:54:53;;;;;;;12.15;4.05;;;;;;;5.35;79.37;102696.59;1717853;83;21493;-81
2021/12/17 09:57:20;;;;;;;10.95;3.47;;;;;;;5.37;79.29;102681.98;1717961;83;21039;-81
2021/12/17 09:59:47;;;;;;;10.53;3.35;;;;;;;5.38;79.21;102685.99;1717674;83;21102;-81
2021/12/17 10:02:14;;;;;;;8.88;3.50;;;;;;;5.39;79.17;102691.75;1717552;83;21105;-81
2021/12/17 10:04:45;;;;;;;14.83;3.55;;;;;;;5.41;79.13;102694.48;1717524;83;21749;-81
2021/12/17 10:07:21;;;;;;;15.78;3.87;;;;;;;5.43;79.03;102692.89;1717246;83;21643;-81
2021/12/17 10:09:53;;;;;;;12.30;3.60;;;;;;;5.45;78.95;102700.05;1716923;82;21065;-81
2021/12/17 10:12:29;;;;;;;14.60;4.20;;;;;;;5.47;78.91;102702.78;1714071;83;21097;-81
2021/12/17 10:15:08;;;;;;;10.38;3.42;;;;;;;5.51;78.91;102706.13;1714306;83;21113;-81
2021/12/17 10:17:36;;;;;;;12.43;3.85;;;;;;;5.54;78.83;102703.77;1713971;83;21819;-81
2021/12/17 10:20:07;;;;;;;14.45;4.15;;;;;;;5.57;78.79;102687.41;1714176;83;21133;-82
2021/12/17 10:22:34;;;;;;;12.18;3.50;;;;;;;5.59;78.65;102681.53;1714233;83;21209;-81
2021/12/17 10:25:07;;;;;;;11.35;3.45;;;;;;;5.61;78.54;102685.17;1713879;83;38452;-81
2021/12/17 10:27:36;;;;;;;15.48;4.10;;;;;;;5.64;78.56;102673.63;1712920;83;21141;-81
2021/12/17 10:30:19;;;;;;;13.98;3.92;;;;;;;5.68;78.54;102673.87;1713885;83;22622;-81
2021/12/17 10:32:49;;;;;;;11.25;3.47;;;;;;;5.70;78.25;102665.34;1710882;83;21078;-81
2021/12/17 10:35:19;;;;;;;12.47;3.50;;;;;;;5.72;78.23;102668.97;1714518;83;21086;-81
2021/12/17 10:37:53;;;;;;;12.07;3.77;;;;;;;5.73;78.22;102651.62;1714071;83;21540;-81
2021/12/17 10:40:32;;;;;;;12.20;3.42;;;;;;;5.75;78.25;102650.02;1714438;83;21110;-81
2021/12/17 10:43:16;;;;;;;9.98;3.27;;;;;;;5.77;78.10;102650.64;1714387;83;21767;-81
2021/12/17 10:45:44;;;;;;;10.78;3.55;;;;;;;5.79;78.09;102643.82;1713669;83;21165;-81
2021/12/17 10:50:56;;;;;;;9.53;3.00;;;;;;;5.81;77.96;102656.59;1714181;83;21162;-80
2021/12/17 10:53:24;;;;;;;9.03;3.05;;;;;;;5.83;77.90;102664.56;1713669;83;21086;-81
2021/12/17 10:55:53;;;;;;;12.68;3.80;;;;;;;5.83;77.61;102657.63;1714587;83;21780;-81
2021/12/17 10:58:20;;;;;;;9.48;3.15;;;;;;;5.84;77.55;102658.15;1712916;83;21101;-81
2021/12/17 11:01:05;;;;;;;11.83;3.05;;;;;;;5.85;77.52;102657.74;1714141;83;21142;-81
2021/12/17 11:03:30;;;;;;;9.88;3.40;;;;;;;5.85;77.45;102663.87;1714101;83;21047;-81
2021/12/17 11:05:59;;;;;;;14.18;3.30;;;;;;;5.88;77.44;102659.70;1691529;83;21105;-81
2021/12/17 11:08:33;;;;;;;10.90;3.15;;;;;;;5.90;77.46;102661.62;1714172;83;21982;-81
2021/12/17 11:11:08;;;;;;;;;;;;;;;5.91;77.37;102666.06;1721208;82;21192;-81
2021/12/17 11:13:29;;;;;;;9.73;3.52;;;;;;;5.91;77.33;102661.21;1724826;83;20277;-81
2021/12/17 11:15:56;;;;;;;8.08;3.00;;;;;;;5.91;77.28;102647.77;1725105;83;21117;-81
2021/12/17 11:18:25;;;;;;;11.55;3.67;;;;;;;5.92;77.22;102651.28;1725022;83;21085;-82
2021/12/17 11:20:53;;;;;;;7.03;3.08;;;;;;;5.92;77.04;102652.59;1724714;83;22929;-81
2021/12/17 11:23:22;;;;;;;12.55;3.50;;;;;;;5.92;76.94;102642.13;1724780;83;21094;-81
2021/12/17 11:25:49;;;;;;;10.90;3.10;;;;;;;5.93;76.93;102637.03;1724824;83;21125;-81
2021/12/17 11:28:18;;;;;;;9.10;3.27;;;;;;;5.84;76.82;102616.33;1724551;83;21620;-81
2021/12/17 11:30:45;;;;;;;11.40;3.77;;;;;;;5.94;76.63;102647.97;1724112;83;21089;-81
2021/12/17 11:33:12;;;;;;;10.90;3.60;;;;;;;5.95;76.71;102642.34;1724353;83;21793;-81
2021/12/17 11:35:46;;;;;;;8.85;3.10;;;;;;;5.96;76.75;102652.95;1724820;83;21350;-81
2021/12/17 11:38:53;;;;;;;11.80;3.25;;;;;;;5.97;76.61;102648.66;1724796;83;21104;-82
2021/12/17 11:41:51;;;;;;;7.40;2.42;;;;;;;5.98;76.45;102659.60;1698411;83;21142;-81
2021/12/17 11:44:19;;;;;;;10.45;3.02;;;;;;;5.97;76.36;102666.55;1656576;84;21697;-82
2021/12/17 11:47:01;;;;;;;9.53;3.15;;;;;;;5.96;76.26;102650.34;1730043;81;22452;-82
2021/12/17 11:49:34;;;;;;;9.78;3.22;;;;;;;5.95;76.15;102648.53;1729780;81;21621;-82
2021/12/17 11:51:56;;;;;;;7.12;2.45;;;;;;;5.95;76.24;102644.61;1728908;82;21072;-82
2021/12/17 11:54:30;;;;;;;8.75;3.00;;;;;;;5.95;76.17;102651.15;1729685;81;21178;-82
2021/12/17 11:57:07;;;;;;;6.12;2.83;;;;;;;5.94;76.01;102644.05;1729861;82;21488;-82
2021/12/17 11:59:37;;;;;;;15.83;2.80;;;;;;;5.94;75.89;102651.00;1729820;82;21924;-82
2021/12/17 12:02:22;;;;;;;14.53;2.83;;;;;;;5.92;75.96;102655.20;1729918;82;21076;-82
2021/12/17 12:04:59;;;;;;;9.80;2.92;;;;;;;5.91;75.85;102645.16;1729950;81;22060;-81
2021/12/17 12:07:33;;;;;;;7.10;2.52;;;;;;;5.90;75.75;102660.72;1729733;82;21704;-81
2021/12/17 12:10:15;;;;;;;;;;;;;;;5.88;75.73;102655.38;1732550;81;21048;-82
2021/12/17 12:12:50;;;;;;;6.67;2.72;;;;;;;5.87;75.63;102671.83;1729758;82;21811;-82
2021/12/17 12:15:28;;;;;;;4.55;1.98;;;;;;;5.86;75.49;102672.64;1729706;81;21057;-81
2021/12/17 12:18:08;;;;;;;10.32;2.80;;;;;;;5.85;75.49;102667.78;1729167;82;21079;-81
2021/12/17 12:20:50;;;;;;;8.70;2.15;;;;;;;5.86;75.39;102667.41;1729408;82;21061;-81
2021/12/17 12:23:32;;;;;;;9.50;2.67;;;;;;;5.87;75.43;102683.59;1729692;81;21068;-81
2021/12/17 12:26:11;;;;;;;9.13;2.90;;;;;;;5.88;75.16;102686.73;1730002;82;22445;-81
2021/12/17 12:29:02;;;;;;;9.28;3.02;;;;;;;5.87;75.10;102669.63;1729696;82;21061;-81
2021/12/17 12:31:37;;;;;;;11.22;2.72;;;;;;;5.84;75.13;102667.30;1729464;82;21116;-80
2021/12/17 12:34:12;;;;;;;13.83;3.27;;;;;;;5.73;74.99;102652.92;1729481;82;22082;-80
2021/12/17 12:37:10;;;;;;;9.15;2.55;;;;;;;5.80;74.90;102673.47;1730186;81;21069;-80
2021/12/17 12:39:55;;;;;;;10.38;3.30;;;;;;;5.77;74.88;102676.77;1729927;81;22594;-81
2021/12/17 12:42:32;;;;;;;9.50;2.85;;;;;;;5.75;74.72;102687.50;1729324;82;21072;-81
2021/12/17 12:45:05;;;;;;;10.38;3.02;;;;;;;5.74;74.72;102691.30;1729799;81;21096;-81
2021/12/17 12:47:38;;;;;;;;;;;;;;;5.71;74.70;102680.23;1732428;81;21061;-80
2021/12/17 12:50:10;;;;;;;11.68;3.77;;;;;;;5.68;74.72;102690.84;1729711;82;20212;-81
2021/12/17 12:52:49;;;;;;;8.45;2.83;;;;;;;5.66;74.78;102689.42;1729680;82;21768;-83
2021/12/17 12:55:41;;;;;;;10.98;2.95;;;;;;;5.64;74.66;102690.60;1729741;81;21737;-80
2021/12/17 12:58:18;;;;;;;10.80;3.55;;;;;;;5.63;74.76;102695.70;1729114;82;21080;-81
2021/12/17 13:00:54;;;;;;;13.00;4.72;;;;;;;5.61;74.83;102691.70;1728405;82;21091;-81
2021/12/17 13:03:26;;;;;;;9.00;3.47;;;;;;;5.60;74.96;102698.11;1730003;81;21581;-80
2021/12/17 13:05:54;;;;;;;9.85;3.62;;;;;;;5.58;75.02;102713.66;1730072;82;21800;-83
2021/12/17 13:08:22;;;;;;;12.10;3.35;;;;;;;5.56;75.12;102707.81;1729650;81;21174;-81
2021/12/17 13:10:55;;;;;;;8.18;2.83;;;;;;;5.54;75.15;102698.95;1729381;82;21136;-81
2021/12/17 13:21:31;;;;;;;14.80;4.35;;;;;;;5.41;75.20;102709.75;1727178;83;21041;-82
2021/12/17 13:23:52;;;;;;;12.13;3.65;;;;;;;5.40;75.22;102726.59;1724666;83;21010;-82
2021/12/17 13:26:23;;;;;;;9.33;3.02;;;;;;;5.38;75.20;102725.57;1727255;82;22312;-82
2021/12/17 13:29:06;;;;;;;13.22;3.37;;;;;;;5.34;75.17;102730.95;1727333;83;21112;-82
2021/12/17 13:31:52;;;;;;;11.95;3.52;;;;;;;5.32;75.22;102743.38;1727583;83;21763;-81
2021/12/17 13:34:30;;;;;;;11.88;3.87;;;;;;;5.30;75.18;102738.44;1726943;83;21342;-82
2021/12/17 13:37:24;;;;;;;10.45;4.03;;;;;;;5.25;75.20;102753.36;1727833;82;21014;-82
2021/12/17 13:39:58;;;;;;;12.80;4.47;;;;;;;5.21;75.17;102751.27;1726673;83;22178;-83
2021/12/17 13:42:31;;;;;;;12.65;4.45;;;;;;;5.17;75.21;102751.82;1727032;82;21069;-83
2021/12/17 13:45:04;;;;;;;13.47;5.07;;;;;;;5.11;75.23;102741.30;1720461;81;21806;-83
2021/12/17 13:47:49;;;;;;;10.88;4.40;;;;;;;5.05;75.22;102749.16;1700187;83;22448;-79
2021/12/17 13:50:27;;;;;;;12.53;3.55;;;;;;;5.02;75.23;102744.09;1697827;84;21068;-83
2021/12/17 13:53:06;;;;;;;13.10;3.27;;;;;;;4.98;75.27;102747.25;1697855;84;21630;-83
2021/12/17 13:55:42;;;;;;;16.27;4.20;;;;;;;4.95;75.29;102745.28;1697905;84;21010;-83
2021/12/17 13:58:12;;;;;;;9.35;4.03;;;;;;;4.91;75.38;102754.97;1697875;84;22580;-83
2021/12/17 14:00:42;;;;;;;14.80;4.20;;;;;;;4.88;75.39;102752.13;1697671;83;21112;-81
2021/12/17 14:03:11;;;;;;;9.65;3.50;;;;;;;4.83;75.40;102756.96;1697373;84;21105;-82
2021/12/17 14:05:44;;;;;;;13.40;3.58;;;;;;;4.76;75.48;102761.16;1697551;84;21013;-82
2021/12/17 14:08:11;;;;;;;12.20;3.72;;;;;;;4.76;75.54;102768.98;1697227;84;21367;-81
2021/12/17 14:10:39;;;;;;;11.68;3.55;;;;;;;4.73;75.61;102763.55;1697655;83;21896;-81
2021/12/17 14:13:08;;;;;;;10.53;3.95;;;;;;;4.75;75.72;102768.49;1697158;83;21088;-82
2021/12/17 14:15:35;;;;;;;12.93;4.40;;;;;;;4.74;75.76;102775.78;1705244;82;21136;-82
2021/12/17 14:18:08;;;;;;;18.10;5.10;;;;;;;4.77;75.84;102779.06;1710277;83;21094;-82
2021/12/17 14:20:56;;;;;;;13.72;4.67;;;;;;;4.71;75.85;102775.56;1710728;83;21085;-82
2021/12/17 14:23:26;;;;;;;10.38;4.50;;;;;;;4.72;75.81;102781.68;1710950;83;22752;-82
2021/12/17 14:26:06;;;;;;;11.78;4.60;;;;;;;4.59;75.78;102764.11;1710757;83;21427;-82
2021/12/17 14:28:36;;;;;;;16.67;5.80;;;;;;;4.61;75.79;102775.58;1710963;83;21137;-82
2021/12/17 14:31:14;;;;;;;11.22;5.10;;;;;;;4.53;75.87;102769.73;1710956;83;21086;-82
2021/12/17 14:33:52;;;;;;;15.68;5.33;;;;;;;4.49;75.90;102771.59;1710975;83;21077;-82
2021/12/17 14:36:22;;;;;;;15.83;5.20;;;;;;;4.45;76.00;102770.82;1725814;82;21819;-82
2021/12/17 14:38:55;;;;;;;15.93;5.90;;;;;;;4.40;76.02;102765.61;1733196;82;22309;-82
2021/12/17 14:41:41;;;;;;;15.68;5.17;;;;;;;4.34;76.06;102776.84;1740161;82;21074;-82
2021/12/17 14:44:49;;;;;;;20.23;5.05;;;;;;;4.26;76.08;102781.03;1736564;82;21545;-82